createdAt,value
2018-04-22T00:00:56.270Z,97.71
2018-04-22T00:01:56.832Z,97.80
2018-04-22T00:02:57.394Z,98.10
2018-04-22T00:03:57.938Z,98.38
2018-04-22T00:04:58.492Z,98.19
2018-04-22T00:05:59.040Z,97.85
2018-04-22T00:06:59.587Z,97.95
2018-04-22T00:08:00.137Z,98.10
2018-04-22T00:09:00.690Z,98.10
2018-04-22T00:10:01.238Z,98.33
2018-04-22T00:11:01.789Z,98.52
2018-04-22T00:12:02.337Z,98.62
2018-04-22T00:13:02.884Z,98.62
2018-04-22T00:14:03.427Z,98.52
2018-04-22T00:15:03.978Z,98.52
2018-04-22T00:16:04.531Z,98.81
2018-04-22T00:17:05.087Z,99.19
2018-04-22T00:18:05.635Z,99.10
2018-04-22T00:19:06.184Z,99.00
2018-04-22T00:20:06.739Z,99.29
2018-04-22T00:21:07.298Z,99.10
2018-04-22T00:22:07.848Z,99.29
2018-04-22T00:23:08.396Z,99.48
2018-04-22T00:24:08.943Z,99.67
2018-04-22T00:25:09.497Z,99.99
2018-04-22T00:26:10.040Z,99.67
2018-04-22T00:27:10.593Z,99.99
2018-04-22T00:28:11.144Z,99.99
2018-04-22T00:29:11.696Z,99.99
2018-04-22T00:30:12.246Z,99.99
2018-04-22T00:31:12.795Z,99.99
2018-04-22T00:32:13.345Z,99.99
2018-04-22T00:33:13.891Z,99.99
2018-04-22T00:34:14.442Z,99.99
2018-04-22T00:35:14.985Z,99.99
2018-04-22T00:36:15.530Z,99.99
2018-04-22T00:37:16.076Z,99.99
2018-04-22T00:38:16.628Z,99.99
2018-04-22T00:39:17.174Z,99.99
2018-04-22T00:40:17.723Z,99.99
2018-04-22T00:41:18.277Z,99.99
2018-04-22T00:42:18.835Z,99.99
2018-04-22T00:43:19.379Z,99.99
2018-04-22T00:44:19.926Z,99.99
2018-04-22T00:45:20.478Z,99.99
2018-04-22T00:46:21.028Z,99.99
2018-04-22T00:47:21.572Z,99.99
2018-04-22T00:48:22.123Z,99.99
2018-04-22T00:49:22.681Z,99.99
2018-04-22T00:50:23.231Z,99.99
2018-04-22T00:51:23.781Z,99.99
2018-04-22T00:52:24.340Z,99.99
2018-04-22T00:53:24.878Z,99.99
2018-04-22T00:54:25.433Z,99.99
2018-04-22T00:55:25.982Z,99.99
2018-04-22T00:56:26.530Z,99.99
2018-04-22T00:57:27.079Z,99.99
2018-04-22T00:58:27.627Z,99.99
2018-04-22T00:59:28.196Z,99.99
2018-04-22T01:00:28.728Z,99.99
2018-04-22T01:01:29.273Z,99.99
2018-04-22T01:02:29.826Z,99.99
2018-04-22T01:03:30.377Z,99.99
2018-04-22T01:04:30.931Z,99.99
2018-04-22T01:05:31.479Z,99.99
2018-04-22T01:06:32.025Z,99.99
2018-04-22T01:07:32.571Z,99.99
2018-04-22T01:08:33.123Z,99.99
2018-04-22T01:09:33.678Z,99.99
2018-04-22T01:10:34.231Z,99.99
2018-04-22T01:11:34.786Z,99.99
2018-04-22T01:12:35.330Z,99.99
2018-04-22T01:13:35.882Z,99.99
2018-04-22T01:14:36.424Z,99.99
2018-04-22T01:15:36.976Z,99.99
2018-04-22T01:16:37.524Z,99.99
2018-04-22T01:17:38.072Z,99.99
2018-04-22T01:18:38.630Z,99.99
2018-04-22T01:19:39.173Z,99.99
2018-04-22T01:20:39.719Z,99.99
2018-04-22T01:21:40.286Z,99.99
2018-04-22T01:22:40.818Z,99.99
2018-04-22T01:23:41.363Z,99.99
2018-04-22T01:24:41.915Z,99.99
2018-04-22T01:25:42.466Z,99.99
2018-04-22T01:26:43.017Z,99.99
2018-04-22T01:27:43.570Z,99.99
2018-04-22T01:28:44.111Z,99.99
2018-04-22T01:29:44.664Z,99.99
2018-04-22T01:30:45.216Z,99.99
2018-04-22T01:31:45.769Z,99.99
2018-04-22T01:32:46.312Z,99.99
2018-04-22T01:33:46.854Z,99.99
2018-04-22T01:34:47.406Z,99.99
2018-04-22T01:35:47.955Z,99.99
2018-04-22T01:36:48.510Z,99.99
2018-04-22T01:37:49.062Z,99.99
2018-04-22T01:38:49.611Z,99.99
2018-04-22T01:39:50.156Z,99.99
2018-04-22T01:40:50.713Z,99.99
2018-04-22T01:41:51.252Z,99.99
2018-04-22T01:42:51.805Z,99.99
2018-04-22T01:43:52.350Z,99.99
2018-04-22T01:44:52.898Z,99.99
2018-04-22T01:45:53.453Z,99.99
2018-04-22T01:46:54.000Z,99.99
2018-04-22T01:47:54.553Z,99.99
2018-04-22T01:48:55.100Z,99.99
2018-04-22T01:49:55.651Z,99.99
2018-04-22T01:50:56.203Z,99.99
2018-04-22T01:51:56.753Z,99.99
2018-04-22T01:52:57.301Z,99.99
2018-04-22T01:53:57.859Z,99.99
2018-04-22T01:54:58.407Z,99.99
2018-04-22T01:55:58.957Z,99.99
2018-04-22T01:56:59.502Z,99.99
2018-04-22T01:58:00.054Z,99.99
2018-04-22T01:59:00.599Z,99.99
2018-04-22T02:00:01.155Z,99.99
2018-04-22T02:01:01.703Z,99.99
2018-04-22T02:02:02.251Z,99.99
2018-04-22T02:03:02.794Z,99.99
2018-04-22T02:04:03.373Z,99.99
2018-04-22T02:05:03.886Z,99.99
2018-04-22T02:06:04.436Z,99.99
2018-04-22T02:07:04.980Z,99.99
2018-04-22T02:08:05.530Z,99.99
2018-04-22T02:09:06.076Z,99.99
2018-04-22T02:10:06.621Z,99.99
2018-04-22T02:11:07.175Z,99.99
2018-04-22T02:12:07.731Z,99.99
2018-04-22T02:13:08.286Z,99.99
2018-04-22T02:14:08.839Z,99.99
2018-04-22T02:15:09.388Z,99.99
2018-04-22T02:16:09.939Z,99.99
2018-04-22T02:17:10.482Z,99.99
2018-04-22T02:18:11.030Z,99.99
2018-04-22T02:19:11.579Z,99.99
2018-04-22T02:20:12.125Z,99.99
2018-04-22T02:21:12.673Z,99.99
2018-04-22T02:22:13.223Z,99.99
2018-04-22T02:23:13.782Z,99.99
2018-04-22T02:24:14.324Z,99.99
2018-04-22T02:25:14.868Z,99.99
2018-04-22T02:26:15.418Z,99.99
2018-04-22T02:27:16.015Z,99.99
2018-04-22T02:28:16.510Z,99.99
2018-04-22T02:29:17.057Z,99.99
2018-04-22T02:30:17.603Z,99.99
2018-04-22T02:31:18.158Z,99.99
2018-04-22T02:32:18.702Z,99.99
2018-04-22T02:33:19.252Z,99.99
2018-04-22T02:34:19.798Z,99.99
2018-04-22T02:35:20.346Z,99.99
2018-04-22T02:36:20.897Z,99.99
2018-04-22T02:37:21.447Z,99.99
2018-04-22T02:38:21.999Z,99.99
2018-04-22T02:39:22.553Z,99.99
2018-04-22T02:40:23.099Z,99.99
2018-04-22T02:41:23.648Z,99.99
2018-04-22T02:42:24.198Z,99.99
2018-04-22T02:43:24.741Z,99.99
2018-04-22T02:44:25.295Z,99.99
2018-04-22T02:45:25.845Z,99.99
2018-04-22T02:46:26.400Z,99.99
2018-04-22T02:47:26.947Z,99.99
2018-04-22T02:48:27.495Z,99.99
2018-04-22T02:49:28.049Z,99.99
2018-04-22T02:50:28.594Z,99.99
2018-04-22T02:51:29.145Z,99.99
2018-04-22T02:52:29.697Z,99.99
2018-04-22T02:53:30.245Z,99.99
2018-04-22T02:54:30.793Z,99.99
2018-04-22T02:55:31.343Z,99.99
2018-04-22T02:56:31.975Z,99.99
2018-04-22T02:57:32.436Z,99.99
2018-04-22T02:58:32.986Z,99.99
2018-04-22T02:59:33.538Z,99.99
2018-04-22T03:00:34.079Z,99.99
2018-04-22T03:01:34.629Z,99.99
2018-04-22T03:02:35.179Z,99.99
2018-04-22T03:03:35.723Z,99.99
2018-04-22T03:04:36.277Z,99.99
2018-04-22T03:05:36.824Z,99.99
2018-04-22T03:06:37.367Z,99.99
2018-04-22T03:07:37.919Z,99.99
2018-04-22T03:08:38.463Z,99.99
2018-04-22T03:09:39.013Z,99.99
2018-04-22T03:10:39.566Z,99.99
2018-04-22T03:11:40.114Z,99.99
2018-04-22T03:12:40.657Z,99.99
2018-04-22T03:13:41.208Z,99.99
2018-04-22T03:14:41.756Z,99.99
2018-04-22T03:15:42.304Z,99.99
2018-04-22T03:16:42.859Z,99.99
2018-04-22T03:17:43.402Z,99.99
2018-04-22T03:18:43.953Z,99.99
2018-04-22T03:19:44.494Z,99.99
2018-04-22T03:20:45.042Z,99.99
2018-04-22T03:21:45.584Z,99.99
2018-04-22T03:22:46.140Z,99.99
2018-04-22T03:23:46.683Z,99.99
2018-04-22T03:24:47.233Z,99.99
2018-04-22T03:25:47.775Z,99.99
2018-04-22T03:26:48.322Z,99.99
2018-04-22T03:27:48.869Z,99.99
2018-04-22T03:28:49.416Z,99.99
2018-04-22T03:29:49.965Z,99.99
2018-04-22T03:30:50.514Z,99.99
2018-04-22T03:31:51.067Z,99.99
2018-04-22T03:32:51.612Z,99.99
2018-04-22T03:33:52.163Z,99.99
2018-04-22T03:34:52.708Z,99.99
2018-04-22T03:35:53.252Z,99.99
2018-04-22T03:36:53.798Z,99.99
2018-04-22T03:37:54.347Z,99.99
2018-04-22T03:38:54.897Z,99.99
2018-04-22T03:39:55.447Z,99.99
2018-04-22T03:40:56.003Z,99.99
2018-04-22T03:41:56.556Z,99.99
2018-04-22T03:42:57.103Z,99.99
2018-04-22T03:43:57.659Z,99.99
2018-04-22T03:44:58.205Z,99.99
2018-04-22T03:45:58.755Z,99.99
2018-04-22T03:46:59.304Z,99.99
2018-04-22T03:47:59.855Z,99.99
2018-04-22T03:49:00.409Z,99.99
2018-04-22T03:50:00.949Z,99.99
2018-04-22T03:51:01.499Z,99.99
2018-04-22T03:52:02.050Z,99.99
2018-04-22T03:53:02.612Z,99.99
2018-04-22T03:54:03.152Z,99.99
2018-04-22T03:55:03.697Z,99.99
2018-04-22T03:56:04.245Z,99.99
2018-04-22T03:57:04.798Z,99.99
2018-04-22T03:58:05.348Z,99.99
2018-04-22T03:59:05.898Z,99.99
2018-04-22T04:00:06.446Z,99.99
2018-04-22T04:01:06.998Z,99.99
2018-04-22T04:02:07.551Z,99.99
2018-04-22T04:03:08.097Z,99.99
2018-04-22T04:04:08.648Z,99.99
2018-04-22T04:05:09.193Z,99.99
2018-04-22T04:06:09.743Z,99.99
2018-04-22T04:07:10.293Z,99.99
2018-04-22T04:08:10.852Z,99.99
2018-04-22T04:09:11.395Z,99.99
2018-04-22T04:10:11.947Z,99.99
2018-04-22T04:11:12.491Z,99.99
2018-04-22T04:12:13.041Z,99.99
2018-04-22T04:13:13.592Z,99.99
2018-04-22T04:14:14.146Z,99.99
2018-04-22T04:15:14.745Z,99.99
2018-04-22T04:16:15.290Z,99.99
2018-04-22T04:17:15.841Z,99.99
2018-04-22T04:18:16.394Z,99.99
2018-04-22T04:19:16.943Z,99.99
2018-04-22T04:20:17.496Z,99.99
2018-04-22T04:21:18.048Z,99.99
2018-04-22T04:22:18.601Z,99.99
2018-04-22T04:23:19.153Z,99.99
2018-04-22T04:24:19.706Z,99.99
2018-04-22T04:25:20.255Z,99.99
2018-04-22T04:26:20.805Z,99.99
2018-04-22T04:27:21.354Z,99.99
2018-04-22T04:28:21.903Z,99.99
2018-04-22T04:29:22.459Z,99.99
2018-04-22T04:30:23.014Z,99.99
2018-04-22T04:31:23.568Z,99.99
2018-04-22T04:32:24.121Z,99.99
2018-04-22T04:33:24.678Z,99.99
2018-04-22T04:34:25.229Z,99.99
2018-04-22T04:35:25.780Z,99.99
2018-04-22T04:36:26.343Z,99.99
2018-04-22T04:37:26.894Z,99.99
2018-04-22T04:38:27.448Z,99.99
2018-04-22T04:39:27.995Z,99.99
2018-04-22T04:40:28.546Z,99.99
2018-04-22T04:41:29.104Z,99.99
2018-04-22T04:42:29.655Z,99.99
2018-04-22T04:43:30.213Z,99.99
2018-04-22T04:44:30.764Z,99.99
2018-04-22T04:45:31.317Z,99.99
2018-04-22T04:46:31.871Z,99.99
2018-04-22T04:47:32.427Z,99.99
2018-04-22T04:48:32.979Z,99.99
2018-04-22T04:49:33.537Z,99.99
2018-04-22T04:50:34.093Z,99.99
2018-04-22T04:51:34.651Z,99.99
2018-04-22T04:52:35.205Z,99.99
2018-04-22T04:53:35.757Z,99.99
2018-04-22T04:54:36.306Z,99.99
2018-04-22T04:55:36.861Z,99.99
2018-04-22T04:56:37.412Z,99.99
2018-04-22T04:57:37.963Z,99.99
2018-04-22T04:58:38.510Z,99.99
2018-04-22T04:59:39.070Z,99.99
2018-04-22T05:00:39.624Z,99.99
2018-04-22T05:01:40.171Z,99.99
2018-04-22T05:02:40.728Z,99.99
2018-04-22T05:03:41.278Z,99.99
2018-04-22T05:04:41.840Z,99.99
2018-04-22T05:05:42.388Z,99.99
2018-04-22T05:06:42.941Z,99.99
2018-04-22T05:07:43.496Z,99.99
2018-04-22T05:08:44.051Z,99.99
2018-04-22T05:09:44.611Z,99.99
2018-04-22T05:10:45.163Z,99.99
2018-04-22T05:11:45.713Z,99.99
2018-04-22T05:12:46.267Z,99.99
2018-04-22T05:13:46.824Z,99.99
2018-04-22T05:14:47.391Z,99.99
2018-04-22T05:15:47.940Z,99.99
2018-04-22T05:16:48.494Z,99.99
2018-04-22T05:17:49.050Z,99.99
2018-04-22T05:18:49.605Z,99.99
2018-04-22T05:19:50.161Z,99.99
2018-04-22T05:20:50.720Z,99.99
2018-04-22T05:21:51.276Z,98.96
2018-04-22T05:22:51.840Z,99.24
2018-04-22T05:23:52.393Z,99.05
2018-04-22T05:24:52.946Z,98.72
2018-04-22T05:25:53.505Z,97.95
2018-04-22T05:26:54.063Z,96.75
2018-04-22T05:27:54.616Z,96.08
2018-04-22T05:28:55.170Z,94.98
2018-04-22T05:29:55.729Z,93.49
2018-04-22T05:30:56.291Z,91.86
2018-04-22T05:31:56.848Z,90.22
2018-04-22T05:32:57.404Z,90.13
2018-04-22T05:33:57.965Z,90.27
2018-04-22T05:34:58.529Z,89.74
2018-04-22T05:35:59.081Z,87.92
2018-04-22T05:36:59.642Z,87.29
2018-04-22T05:38:00.204Z,85.75
2018-04-22T05:39:00.765Z,84.88
2018-04-22T05:40:01.318Z,84.50
2018-04-22T05:41:01.872Z,84.54
2018-04-22T05:42:02.439Z,83.72
2018-04-22T05:43:02.996Z,82.50
2018-04-22T05:44:03.561Z,80.92
2018-04-22T05:45:04.111Z,81.12
2018-04-22T05:46:04.673Z,81.94
2018-04-22T05:47:05.237Z,83.19
2018-04-22T05:48:05.800Z,83.81
2018-04-22T05:49:06.359Z,82.98
2018-04-22T05:50:06.927Z,82.31
2018-04-22T05:51:07.486Z,80.62
2018-04-22T05:52:08.056Z,79.69
2018-04-22T05:53:08.619Z,78.44
2018-04-22T05:54:09.181Z,76.93
2018-04-22T05:55:09.749Z,76.45
2018-04-22T05:56:10.312Z,77.13
2018-04-22T05:57:10.871Z,75.78
2018-04-22T05:58:11.437Z,75.30
2018-04-22T05:59:12.001Z,75.30
2018-04-22T06:00:12.567Z,76.65
2018-04-22T06:01:13.132Z,76.98
2018-04-22T06:02:13.721Z,76.05
2018-04-22T06:03:14.257Z,75.37
2018-04-22T06:04:14.832Z,74.41
2018-04-22T06:05:15.394Z,74.93
2018-04-22T06:06:15.957Z,74.19
2018-04-22T06:07:16.516Z,72.64
2018-04-22T06:08:17.087Z,73.52
2018-04-22T06:09:17.646Z,72.26
2018-04-22T06:10:18.217Z,72.32
2018-04-22T06:11:18.775Z,73.86
2018-04-22T06:12:19.342Z,73.52
2018-04-22T06:13:19.910Z,71.78
2018-04-22T06:14:20.481Z,72.84
2018-04-22T06:15:21.043Z,71.46
2018-04-22T06:16:21.608Z,71.50
2018-04-22T06:17:22.209Z,69.17
2018-04-22T06:18:22.743Z,69.46
2018-04-22T06:19:23.308Z,69.85
2018-04-22T06:20:23.870Z,69.17
2018-04-22T06:21:24.437Z,68.79
2018-04-22T06:22:25.011Z,69.85
2018-04-22T06:23:25.572Z,68.73
2018-04-22T06:24:26.137Z,68.27
2018-04-22T06:25:26.714Z,66.72
2018-04-22T06:26:27.272Z,66.92
2018-04-22T06:27:27.842Z,66.63
2018-04-22T06:28:28.410Z,65.47
2018-04-22T06:29:28.978Z,65.27
2018-04-22T06:30:29.543Z,65.27
2018-04-22T06:31:30.114Z,65.56
2018-04-22T06:32:30.689Z,65.47
2018-04-22T06:33:31.267Z,65.08
2018-04-22T06:34:31.821Z,64.50
2018-04-22T06:35:32.391Z,64.30
2018-04-22T06:36:32.957Z,64.98
2018-04-22T06:37:33.525Z,65.85
2018-04-22T06:38:34.095Z,64.40
2018-04-22T06:39:34.668Z,64.30
2018-04-22T06:40:35.235Z,64.89
2018-04-22T06:41:35.801Z,63.82
2018-04-22T06:42:36.366Z,63.98
2018-04-22T06:43:36.935Z,64.47
2018-04-22T06:44:37.499Z,64.79
2018-04-22T06:45:38.073Z,64.72
2018-04-22T06:46:38.639Z,63.37
2018-04-22T06:47:39.199Z,63.10
2018-04-22T06:48:39.770Z,63.30
2018-04-22T06:49:40.340Z,62.95
2018-04-22T06:50:40.909Z,61.52
2018-04-22T06:51:41.478Z,60.74
2018-04-22T06:52:42.048Z,61.71
2018-04-22T06:53:42.618Z,61.52
2018-04-22T06:54:43.191Z,61.55
2018-04-22T06:55:43.762Z,61.71
2018-04-22T06:56:44.332Z,62.68
2018-04-22T06:57:44.902Z,62.10
2018-04-22T06:58:45.475Z,62.49
2018-04-22T06:59:46.041Z,61.81
2018-04-22T07:00:46.613Z,61.94
2018-04-22T07:01:47.177Z,62.81
2018-04-22T07:02:47.745Z,61.19
2018-04-22T07:03:48.314Z,60.90
2018-04-22T07:04:48.886Z,60.74
2018-04-22T07:05:49.458Z,59.41
2018-04-22T07:06:50.028Z,58.72
2018-04-22T07:07:50.599Z,58.43
2018-04-22T07:08:51.174Z,59.38
2018-04-22T07:09:51.743Z,58.79
2018-04-22T07:10:52.317Z,58.79
2018-04-22T07:11:52.886Z,58.43
2018-04-22T07:12:53.458Z,58.26
2018-04-22T07:13:54.038Z,57.90
2018-04-22T07:14:54.606Z,56.96
2018-04-22T07:15:55.179Z,57.15
2018-04-22T07:16:55.744Z,57.25
2018-04-22T07:17:56.326Z,56.37
2018-04-22T07:18:56.892Z,56.21
2018-04-22T07:19:57.466Z,55.91
2018-04-22T07:20:58.040Z,56.50
2018-04-22T07:21:58.621Z,55.94
2018-04-22T07:22:59.179Z,54.99
2018-04-22T07:23:59.795Z,54.53
2018-04-22T07:25:00.313Z,54.24
2018-04-22T07:26:00.888Z,54.17
2018-04-22T07:27:01.458Z,53.68
2018-04-22T07:28:02.033Z,53.22
2018-04-22T07:29:02.605Z,52.61
2018-04-22T07:30:03.177Z,52.05
2018-04-22T07:31:03.751Z,51.95
2018-04-22T07:32:04.318Z,52.61
2018-04-22T07:33:04.889Z,52.83
2018-04-22T07:34:05.463Z,53.36
2018-04-22T07:35:06.035Z,51.80
2018-04-22T07:37:22.060Z,51.61
2018-04-22T07:38:22.628Z,51.12
2018-04-22T07:39:23.199Z,51.12
2018-04-22T07:40:23.773Z,51.14
2018-04-22T07:41:24.343Z,51.76
2018-04-22T07:42:24.960Z,51.04
2018-04-22T07:43:25.539Z,50.82
2018-04-22T07:44:26.106Z,50.73
2018-04-22T07:45:26.671Z,51.73
2018-04-22T07:46:27.246Z,53.19
2018-04-22T07:47:27.818Z,52.80
2018-04-22T07:48:28.391Z,51.82
2018-04-22T07:49:28.961Z,51.27
2018-04-22T07:50:29.536Z,52.83
2018-04-22T07:51:30.118Z,53.34
2018-04-22T07:52:30.682Z,53.08
2018-04-22T07:53:31.280Z,52.29
2018-04-22T07:54:31.819Z,51.39
2018-04-22T07:55:32.388Z,51.98
2018-04-22T07:56:32.964Z,51.37
2018-04-22T07:57:33.535Z,51.63
2018-04-22T07:58:34.103Z,51.82
2018-04-22T07:59:34.678Z,51.86
2018-04-22T08:00:35.251Z,51.76
2018-04-22T08:01:35.822Z,52.93
2018-04-22T08:02:36.395Z,52.47
2018-04-22T08:03:36.964Z,52.98
2018-04-22T08:04:37.534Z,52.71
2018-04-22T08:05:38.104Z,51.95
2018-04-22T08:06:38.675Z,51.29
2018-04-22T08:07:39.248Z,49.75
2018-04-22T08:08:39.821Z,49.09
2018-04-22T08:09:40.401Z,48.72
2018-04-22T08:10:40.974Z,48.72
2018-04-22T08:11:41.552Z,48.63
2018-04-22T08:12:42.118Z,48.33
2018-04-22T08:13:42.696Z,48.25
2018-04-22T08:14:43.262Z,48.06
2018-04-22T08:15:43.837Z,47.84
2018-04-22T08:16:44.405Z,48.23
2018-04-22T08:17:44.982Z,48.35
2018-04-22T08:18:45.554Z,48.35
2018-04-22T08:19:46.127Z,47.17
2018-04-22T08:20:46.699Z,47.25
2018-04-22T08:21:47.273Z,48.65
2018-04-22T08:22:47.849Z,47.37
2018-04-22T08:23:48.420Z,46.47
2018-04-22T08:24:48.999Z,46.47
2018-04-22T08:25:49.570Z,46.86
2018-04-22T08:26:50.140Z,46.88
2018-04-22T08:27:50.716Z,45.98
2018-04-22T08:28:51.294Z,46.27
2018-04-22T08:29:51.865Z,46.44
2018-04-22T08:30:52.440Z,47.52
2018-04-22T08:31:53.017Z,47.52
2018-04-22T08:32:53.591Z,47.23
2018-04-22T08:33:54.215Z,47.91
2018-04-22T08:34:54.740Z,48.50
2018-04-22T08:35:55.311Z,48.72
2018-04-22T08:36:55.882Z,48.77
2018-04-22T08:37:56.456Z,48.38
2018-04-22T08:38:57.039Z,47.44
2018-04-22T08:39:57.607Z,46.66
2018-04-22T08:40:58.185Z,45.87
2018-04-22T08:41:58.758Z,46.06
2018-04-22T08:42:59.326Z,45.38
2018-04-22T08:43:59.933Z,45.28
2018-04-22T08:45:00.482Z,45.77
2018-04-22T08:46:01.059Z,45.40
2018-04-22T08:47:01.633Z,45.70
2018-04-22T08:48:02.197Z,45.30
2018-04-22T08:49:02.772Z,45.30
2018-04-22T08:50:03.345Z,45.20
2018-04-22T08:51:03.921Z,45.79
2018-04-22T08:52:04.500Z,45.28
2018-04-22T08:53:05.074Z,45.87
2018-04-22T08:54:05.643Z,45.28
2018-04-22T08:55:06.219Z,45.85
2018-04-22T08:56:06.790Z,45.92
2018-04-22T08:57:07.365Z,44.82
2018-04-22T08:58:07.950Z,45.29
2018-04-22T08:59:08.516Z,46.25
2018-04-22T09:00:09.084Z,49.09
2018-04-22T09:01:09.656Z,50.73
2018-04-22T09:02:10.232Z,50.02
2018-04-22T09:03:10.795Z,49.60
2018-04-22T09:04:11.361Z,45.75
2018-04-22T09:05:11.927Z,46.11
2018-04-22T09:06:12.500Z,46.48
2018-04-22T09:07:13.063Z,47.27
2018-04-22T09:08:13.631Z,47.07
2018-04-22T09:09:14.202Z,46.26
2018-04-22T09:10:14.774Z,46.92
2018-04-22T09:11:15.346Z,48.97
2018-04-22T09:12:15.914Z,48.22
2018-04-22T09:13:16.492Z,47.12
2018-04-22T09:14:17.056Z,48.39
2018-04-22T09:15:17.624Z,48.00
2018-04-22T09:16:18.196Z,47.88
2018-04-22T09:17:18.771Z,49.73
2018-04-22T09:18:19.348Z,50.19
2018-04-22T09:19:19.915Z,48.93
2018-04-22T09:20:20.489Z,50.29
2018-04-22T09:21:21.057Z,50.38
2018-04-22T09:22:21.631Z,50.29
2018-04-22T09:23:22.197Z,48.93
2018-04-22T09:24:22.769Z,48.83
2018-04-22T09:25:23.336Z,49.32
2018-04-22T09:26:23.907Z,49.12
2018-04-22T09:27:24.540Z,49.12
2018-04-22T09:28:25.098Z,48.46
2018-04-22T09:29:25.674Z,48.49
2018-04-22T09:30:26.248Z,48.29
2018-04-22T09:31:26.818Z,48.39
2018-04-22T09:32:27.386Z,47.14
2018-04-22T09:33:27.958Z,47.14
2018-04-22T09:34:28.521Z,47.14
2018-04-22T09:35:29.095Z,47.92
2018-04-22T09:36:29.663Z,48.24
2018-04-22T09:37:30.234Z,47.27
2018-04-22T09:38:30.799Z,46.88
2018-04-22T09:39:31.372Z,46.88
2018-04-22T09:40:31.945Z,46.68
2018-04-22T09:41:32.516Z,46.00
2018-04-22T09:42:33.086Z,46.00
2018-04-22T09:43:33.654Z,46.19
2018-04-22T09:44:34.223Z,46.58
2018-04-22T09:45:34.792Z,46.97
2018-04-22T09:46:35.370Z,46.07
2018-04-22T09:47:35.936Z,46.85
2018-04-22T09:48:36.507Z,48.05
2018-04-22T09:49:37.078Z,47.28
2018-04-22T09:50:37.646Z,48.09
2018-04-22T09:51:38.212Z,47.11
2018-04-22T09:52:38.780Z,45.84
2018-04-22T09:53:39.348Z,45.84
2018-04-22T09:54:39.921Z,46.31
2018-04-22T09:55:40.526Z,46.97
2018-04-22T09:56:41.057Z,47.92
2018-04-22T09:57:41.623Z,48.12
2018-04-22T09:58:42.194Z,48.51
2018-04-22T09:59:42.765Z,48.41
2018-04-22T10:00:43.336Z,48.61
2018-04-22T10:01:43.897Z,49.07
2018-04-22T10:02:44.467Z,50.04
2018-04-22T10:03:45.036Z,49.56
2018-04-22T10:04:45.607Z,49.37
2018-04-22T10:05:46.179Z,48.95
2018-04-22T10:06:46.746Z,49.44
2018-04-22T10:07:47.319Z,49.80
2018-04-22T10:08:47.887Z,50.19
2018-04-22T10:09:48.459Z,50.58
2018-04-22T10:10:49.032Z,49.99
2018-04-22T10:11:49.593Z,50.36
2018-04-22T10:12:50.167Z,50.36
2018-04-22T10:13:50.740Z,50.85
2018-04-22T10:14:51.307Z,50.73
2018-04-22T10:15:51.881Z,50.75
2018-04-22T10:16:52.453Z,51.34
2018-04-22T10:17:53.020Z,51.26
2018-04-22T10:18:53.592Z,50.02
2018-04-22T10:19:54.162Z,49.73
2018-04-22T10:20:54.731Z,49.46
2018-04-22T10:21:55.320Z,49.07
2018-04-22T10:22:55.864Z,49.17
2018-04-22T10:23:56.435Z,49.46
2018-04-22T10:24:57.009Z,49.10
2018-04-22T10:25:57.581Z,48.93
2018-04-22T10:26:58.154Z,48.26
2018-04-22T10:27:58.735Z,47.50
2018-04-22T10:28:59.308Z,46.92
2018-04-22T10:29:59.874Z,47.04
2018-04-22T10:31:00.438Z,46.55
2018-04-22T10:32:01.006Z,45.86
2018-04-22T10:33:01.579Z,46.06
2018-04-22T10:34:02.152Z,46.14
2018-04-22T10:35:02.722Z,45.75
2018-04-22T10:36:03.314Z,46.04
2018-04-22T10:37:03.869Z,45.84
2018-04-22T10:38:04.439Z,45.67
2018-04-22T10:39:05.013Z,45.47
2018-04-22T10:40:05.641Z,44.79
2018-04-22T10:41:06.159Z,44.91
2018-04-22T10:42:06.728Z,45.01
2018-04-22T10:43:07.296Z,44.91
2018-04-22T10:44:07.869Z,44.91
2018-04-22T10:45:08.441Z,45.40
2018-04-22T10:46:09.017Z,45.81
2018-04-22T10:47:09.590Z,45.72
2018-04-22T10:48:10.157Z,46.11
2018-04-22T10:49:10.725Z,46.67
2018-04-22T10:50:11.305Z,46.33
2018-04-22T10:51:11.880Z,45.54
2018-04-22T10:52:12.454Z,45.49
2018-04-22T10:53:13.031Z,45.39
2018-04-22T10:54:13.604Z,45.02
2018-04-22T10:55:14.219Z,44.73
2018-04-22T10:56:14.750Z,44.06
2018-04-22T10:57:15.325Z,43.66
2018-04-22T10:58:15.894Z,43.86
2018-04-22T10:59:16.471Z,43.84
2018-04-22T11:00:17.043Z,43.86
2018-04-22T11:01:17.616Z,44.13
2018-04-22T11:02:18.199Z,43.72
2018-04-22T11:03:18.772Z,43.92
2018-04-22T11:04:19.348Z,43.84
2018-04-22T11:05:19.923Z,44.53
2018-04-22T11:06:20.497Z,44.73
2018-04-22T11:07:21.127Z,44.65
2018-04-22T11:08:21.646Z,44.06
2018-04-22T11:09:22.225Z,43.69
2018-04-22T11:10:22.795Z,43.59
2018-04-22T11:11:23.372Z,43.98
2018-04-22T11:12:23.946Z,44.06
2018-04-22T11:13:24.518Z,43.94
2018-04-22T11:14:25.087Z,45.12
2018-04-22T11:15:25.660Z,45.21
2018-04-22T11:16:26.232Z,45.21
2018-04-22T11:17:26.816Z,44.82
2018-04-22T11:18:27.379Z,44.06
2018-04-22T11:19:27.947Z,43.18
2018-04-22T11:20:28.517Z,43.18
2018-04-22T11:21:29.091Z,43.49
2018-04-22T11:22:29.663Z,42.53
2018-04-22T11:23:30.230Z,43.22
2018-04-22T11:24:30.803Z,42.33
2018-04-22T11:25:31.369Z,42.72
2018-04-22T11:26:31.945Z,42.61
2018-04-22T11:27:32.515Z,42.63
2018-04-22T11:28:33.095Z,42.63
2018-04-22T11:29:33.667Z,43.29
2018-04-22T11:30:34.244Z,43.71
2018-04-22T11:31:34.812Z,42.65
2018-04-22T11:32:35.407Z,41.61
2018-04-22T11:33:35.960Z,41.80
2018-04-22T11:34:36.576Z,41.51
2018-04-22T11:35:37.107Z,41.98
2018-04-22T11:36:37.682Z,42.63
2018-04-22T11:37:38.254Z,42.32
2018-04-22T11:38:38.828Z,42.41
2018-04-22T11:39:39.405Z,42.68
2018-04-22T11:40:39.966Z,43.08
2018-04-22T11:41:40.538Z,42.58
2018-04-22T11:42:41.120Z,43.37
2018-04-22T11:43:41.688Z,43.08
2018-04-22T11:44:42.254Z,42.66
2018-04-22T11:45:42.821Z,43.47
2018-04-22T11:46:43.391Z,43.57
2018-04-22T11:47:43.965Z,43.76
2018-04-22T11:48:44.530Z,42.41
2018-04-22T11:49:45.102Z,42.21
2018-04-22T11:50:45.671Z,42.33
2018-04-22T11:51:46.242Z,42.11
2018-04-22T11:52:46.816Z,42.10
2018-04-22T11:53:47.391Z,42.58
2018-04-22T11:54:47.964Z,41.94
2018-04-22T11:55:48.544Z,41.86
2018-04-22T11:56:49.105Z,41.67
2018-04-22T11:57:49.679Z,41.11
2018-04-22T11:58:50.252Z,40.90
2018-04-22T11:59:50.875Z,41.08
2018-04-22T12:00:51.392Z,41.63
2018-04-22T12:01:51.962Z,42.10
2018-04-22T12:02:52.534Z,43.05
2018-04-22T12:03:53.106Z,43.43
2018-04-22T12:04:53.678Z,43.60
2018-04-22T12:05:54.249Z,44.07
2018-04-22T12:06:54.817Z,44.37
2018-04-22T12:07:55.389Z,43.88
2018-04-22T12:08:55.963Z,44.54
2018-04-22T12:09:56.529Z,44.32
2018-04-22T12:10:57.109Z,45.69
2018-04-22T12:11:57.675Z,46.06
2018-04-22T12:12:58.245Z,46.84
2018-04-22T12:13:58.815Z,46.72
2018-04-22T12:14:59.389Z,47.21
2018-04-22T12:15:59.957Z,46.70
2018-04-22T12:17:00.523Z,47.17
2018-04-22T12:18:01.083Z,47.66
2018-04-22T12:19:01.851Z,48.02
2018-04-22T12:20:02.416Z,48.51
2018-04-22T12:21:02.987Z,48.19
2018-04-22T12:22:03.553Z,49.37
2018-04-22T12:23:04.122Z,50.51
2018-04-22T12:24:04.684Z,50.58
2018-04-22T12:25:05.263Z,50.97
2018-04-22T12:26:05.823Z,52.24
2018-04-22T12:27:06.387Z,53.28
2018-04-22T12:28:06.962Z,55.11
2018-04-22T12:29:07.531Z,56.68
2018-04-22T12:30:08.098Z,60.51
2018-04-22T12:31:08.664Z,62.07
2018-04-22T12:32:09.229Z,59.74
2018-04-22T12:33:09.793Z,61.59
2018-04-22T12:34:10.359Z,62.27
2018-04-22T12:35:10.929Z,63.69
2018-04-22T12:36:11.497Z,64.04
2018-04-22T12:37:12.065Z,63.66
2018-04-22T12:38:12.631Z,63.89
2018-04-22T12:39:13.199Z,63.18
2018-04-22T12:40:13.766Z,63.24
2018-04-22T12:41:14.335Z,64.47
2018-04-22T12:42:14.897Z,66.20
2018-04-22T12:43:15.463Z,67.52
2018-04-22T12:44:16.031Z,67.08
2018-04-22T12:45:16.599Z,67.08
2018-04-22T12:46:17.165Z,66.05
2018-04-22T12:47:17.731Z,66.01
2018-04-22T12:48:18.298Z,65.47
2018-04-22T12:49:18.868Z,64.62
2018-04-22T12:50:19.472Z,64.27
2018-04-22T12:51:20.000Z,64.14
2018-04-22T12:52:20.565Z,65.14
2018-04-22T12:53:21.132Z,64.62
2018-04-22T12:54:21.703Z,64.65
2018-04-22T12:55:22.272Z,65.56
2018-04-22T12:56:22.843Z,65.98
2018-04-22T12:57:23.408Z,64.82
2018-04-22T12:58:23.974Z,64.62
2018-04-22T12:59:24.544Z,64.04
2018-04-22T13:00:25.106Z,64.69
2018-04-22T13:01:25.686Z,65.75